Aérodrome :
LOGIN :

S'inscrire | Disclaimer

   EN    FR    IT 

 










Légende :    VFR   VFR Marginal   IFR   IFR Intensif   IFR Très Intensif
Visi : 
Plafond : 
>= 8 km
>= 3000ft
5 à 8 km
1000 à 3000 ft
1500m à 5 km
500 à 1000 ft
800 à 1500m
200 à 500 ft
< 800m
< 200 ft
Symboles :   Orages  Brouillard  Fortes neiges  Fortes précipitations  Vent > 20 kt
SIGMETs :   Divers  Orages  Givrage  Turbulence  Onde Orograph.  Cendres Volcan.






- Altitude de l'aérodrome : 129 ft
- Code IATA : ZCN


ETHC - Celle

DERNIER METAR :
  • 192220Z 23006KT 9999 SCT040 04/M00 Q1019 BLU+

METARs EXPIRÉS :
  • 192120Z 22007KT 9999 SCT040 04/M00 Q1019 BLU+
  • 192020Z 25007KT 9999 SCT040 04/M00 Q1019 BLU+

TAF AMD TAF ETHC
Valide du 19 à 15h jusqu'au 20 à 00h UTC


191720Z 1915/1924 26010KT 9999 NSW SCT030 BKN050
TEMPO 1915/1918 27012G25KT 4000 SHRA BKN010 BKN020 CANCEL 1720



MET'MAP, la Météo Aéronautique d'un coup d'oeil ! - Copyright ORBIFLY Décembre 2007 - Disclaimer

ORBIFLY MET'MAP TEAM :

Programmation & Développement : Alexandra Zaïnal
Sur une idée originale de : Baudouin d'Aumeries
Assistance à la programmation : Marc-Olivier Méhu
Soutien technique & logistique : Manuel Goepfert

Contact : metmap@orbifly.com




SOURCES & CREDITS :

   NOAA